• Join FlightAware (Why Join?)
  • Login
  • US Flag 
05:41PM EST


 

Airport Tracker/Info


-or-


 

Live Flight TrackerFlight Track Log ✈ RPA3159 ✈ 14-May-2013 ✈ KBTV - KPHL

Flight Track Log - Related Links

Times and Time Zones

All times are in EDT time to prevent confusion due to time zone crossing. See the RPA3159 flight status page for this flight to view local times or setup timezone preferences in your user account.

Time Position Orientation Groundspeed Altitude Reporting Facility
EDT Latitude Longitude Course Direction KTS MPH feet Rate Location/Type
12:13PM 44.0453 -73.3072 194° South  Level FlightAware Approximate
12:13PM 44.5161 -73.3281 197° South 215 247 8,600  Level Boston Center
12:14PM 43.9034 -73.3550 195° South  Level FlightAware Approximate
12:14PM 44.4328 -73.3528 192° South 206 237 10,000  Level Boston Center
12:15PM 43.7625 -73.4079 195° South  Level FlightAware Approximate
12:15PM 44.3344 -73.3806 191° South 313 360 12,500  Level Boston Center
12:16PM 43.6220 -73.4627 198° South  Level FlightAware Approximate
12:16PM 44.2531 -73.4022 191° South 366 421 14,500  Level Boston Center
12:17PM 43.4834 -73.5258 198° South  Level FlightAware Approximate
12:17PM 44.1089 -73.4433 192° South 406 467 17,400  Level Boston Center
12:18PM 43.3412 -73.5681 197° South  Level FlightAware Approximate
12:18PM 43.9919 -73.4731 190° South 425 489 19,300  Level Boston Center
12:19PM 43.8708 -73.5086 192° South 442 509 21,200 1,860 Climbing Boston Center
12:20PM 43.7433 -73.5436 191° South 456 525 23,100 1,740 Climbing Boston Center
12:21PM 43.6344 -73.5989 200° South 461 531 24,700 1,440 Climbing Boston Center
12:22PM 43.5314 -73.7003 216° Southwest 452 520 26,000 600 Climbing Boston Center
12:23PM 43.4261 -73.8008 215° Southwest 464 534 26,000  Level Boston Center
12:24PM 43.3058 -73.9122 214° Southwest 480 552 26,000  Level Boston Center
12:25PM 43.2003 -74.0153 215° Southwest 480 552 26,000  Level Boston Center
12:26PM 43.0925 -74.1175 215° Southwest 480 552 26,000  Level Boston Center
12:27PM 42.9889 -74.2169 215° Southwest 475 547 26,000  Level Boston Center
12:28PM 42.8811 -74.3131 213° Southwest 475 547 26,000  Level Boston Center
12:29PM 42.7731 -74.4144 215° Southwest 475 547 26,000  Level Boston Center
12:30PM 42.6797 -74.4989 214° Southwest 469 540 26,000  Level Boston Center
12:31PM 42.5758 -74.5969 215° Southwest 469 540 26,000  Level Boston Center
12:32PM 42.4675 -74.6947 214° Southwest 474 545 26,000  Level Boston Center
12:34PM 42.3053 -74.8419 214° Southwest 472 543 26,000 -840 Level New York Center
12:35PM 42.2000 -74.9361 214° Southwest 472 543 23,900 -2,340 Descending New York Center
12:36PM 42.0861 -75.0353 213° Southwest 457 526 21,300 -2,460 Descending New York Center
12:37PM 41.9875 -75.1181 212° Southwest 440 506 19,100 -1,200 Descending New York Center
12:38PM 41.8908 -75.1981 212° Southwest 429 494 19,000 -60 Descending New York Center
12:39PM 41.8008 -75.2672 210° Southwest 414 476 19,000 -840 Level New York Center
12:40PM 41.6933 -75.3544 211° Southwest 419 482 17,400 -1,920 Descending New York Center
12:41PM 41.6008 -75.4286 211° Southwest 419 482 15,200 -2,100 Descending New York Center
12:42PM 41.5083 -75.5025 211° Southwest 404 465 13,300 -1,620 Descending New York Center
12:43PM 41.4308 -75.5661 212° Southwest 381 438 12,000 -660 Descending New York Center
12:44PM 41.3425 -75.6372 211° Southwest 374 430 12,000 -180 Level New York Center
12:45PM 41.2486 -75.6911 203° Southwest 379 436 11,700 -960 Descending New York Center
12:46PM 41.1353 -75.6608 169° South 362 417 10,100 -900 Descending New York Center
12:47PM 41.0408 -75.6294 166° South 368 423 10,000 -60 Descending New York Center
12:48PM 40.9503 -75.6008 167° South 368 423 10,000  Level New York Center
12:49PM 40.8394 -75.5628 165° South 375 432 10,000  Level New York Center
12:50PM 40.7386 -75.5283 165° South 369 425 10,000  Level New York Center
12:51PM 40.6358 -75.4939 166° South 375 432 10,000  Level New York Center
12:52PM 40.5433 -75.4631 166° South 364 419 10,000  Level New York Center
12:53PM 40.4631 -75.4356 165° South 321 369 10,000 -300 Level New York Center
12:54PM 40.3856 -75.3950 158° South 308 354 9,500 -540 Descending New York Center
12:55PM 40.3103 -75.3492 155° Southeast 303 349 9,000 -1,020 Descending New York Center
12:56PM 40.2428 -75.3119 157° South 298 343 7,500 -1,560 Descending New York Center
12:57PM 40.1592 -75.2686 158° South 301 346 6,000 -780 Descending New York Center
12:58PM 40.0958 -75.2319 156° South 268 308 6,000  Level New York Center
12:58PM 40.0500 -75.2000 152° Southeast 237 273 6,000  Level Philadelphia TRACON
01:00PM 39.9833 -75.1667 159° South 237 273 6,000  Level Philadelphia TRACON
01:01PM 39.9833 -75.1000 90° East 214 246 6,000  Level Philadelphia TRACON
01:02PM 40.0000 -75.0333 72° East 213 245 6,000 -720 Level Philadelphia TRACON
01:03PM 40.0167 -74.9500 75° East 211 243 4,600 -1,020 Descending Philadelphia TRACON
01:04PM 39.9667 -74.9333 166° South 189 217 4,000 -300 Descending Philadelphia TRACON
01:05PM 39.9167 -74.9833 217° Southwest 186 214 4,000 -480 Level Philadelphia TRACON
01:05PM 39.9167 -75.0333 270° West 168 193 3,100 -960 Descending Philadelphia TRACON
01:06PM 39.9000 -75.0833 247° West 162 186 2,200 -900 Descending Philadelphia TRACON